sensor_id;sensor_type;location;lat;lon;timestamp;P1;durP1;ratioP1;P2;durP2;ratioP2
66751;SDS011;53663;42.676;23.238;2022-08-27T00:01:04;16.77;;;4.38;;
66751;SDS011;53663;42.676;23.238;2022-08-27T00:03:30;21.92;;;4.10;;
66751;SDS011;53663;42.676;23.238;2022-08-27T00:05:55;15.15;;;4.00;;
66751;SDS011;53663;42.676;23.238;2022-08-27T00:08:21;13.20;;;5.13;;
66751;SDS011;53663;42.676;23.238;2022-08-27T00:10:46;17.25;;;4.53;;
66751;SDS011;53663;42.676;23.238;2022-08-27T00:13:12;19.08;;;5.10;;
66751;SDS011;53663;42.676;23.238;2022-08-27T00:15:39;14.75;;;4.70;;
66751;SDS011;53663;42.676;23.238;2022-08-27T00:18:05;10.85;;;3.85;;
66751;SDS011;53663;42.676;23.238;2022-08-27T00:20:31;12.00;;;3.92;;
66751;SDS011;53663;42.676;23.238;2022-08-27T00:22:57;7.03;;;3.75;;
66751;SDS011;53663;42.676;23.238;2022-08-27T00:25:23;11.25;;;3.80;;
66751;SDS011;53663;42.676;23.238;2022-08-27T00:27:49;14.20;;;4.10;;
66751;SDS011;53663;42.676;23.238;2022-08-27T00:30:15;11.48;;;4.05;;
66751;SDS011;53663;42.676;23.238;2022-08-27T00:32:43;9.85;;;3.80;;
66751;SDS011;53663;42.676;23.238;2022-08-27T00:35:09;9.18;;;3.90;;
66751;SDS011;53663;42.676;23.238;2022-08-27T00:37:36;20.15;;;3.90;;
66751;SDS011;53663;42.676;23.238;2022-08-27T00:40:04;9.35;;;3.30;;
66751;SDS011;53663;42.676;23.238;2022-08-27T00:42:31;7.22;;;3.70;;
66751;SDS011;53663;42.676;23.238;2022-08-27T00:44:57;14.32;;;3.35;;
66751;SDS011;53663;42.676;23.238;2022-08-27T00:47:24;14.55;;;4.28;;
66751;SDS011;53663;42.676;23.238;2022-08-27T00:49:56;8.98;;;3.50;;
66751;SDS011;53663;42.676;23.238;2022-08-27T00:52:33;16.88;;;4.05;;
66751;SDS011;53663;42.676;23.238;2022-08-27T00:55:06;16.70;;;4.22;;
66751;SDS011;53663;42.676;23.238;2022-08-27T00:57:37;13.63;;;4.70;;
66751;SDS011;53663;42.676;23.238;2022-08-27T01:00:06;11.30;;;4.43;;
66751;SDS011;53663;42.676;23.238;2022-08-27T01:02:33;14.65;;;4.57;;
66751;SDS011;53663;42.676;23.238;2022-08-27T01:05:00;14.45;;;4.05;;
66751;SDS011;53663;42.676;23.238;2022-08-27T01:07:29;16.43;;;4.37;;
66751;SDS011;53663;42.676;23.238;2022-08-27T01:09:58;7.93;;;4.00;;
66751;SDS011;53663;42.676;23.238;2022-08-27T01:12:25;16.75;;;4.20;;
66751;SDS011;53663;42.676;23.238;2022-08-27T01:14:53;8.70;;;4.05;;
66751;SDS011;53663;42.676;23.238;2022-08-27T01:17:20;14.50;;;3.95;;
66751;SDS011;53663;42.676;23.238;2022-08-27T01:19:51;10.32;;;3.53;;
66751;SDS011;53663;42.676;23.238;2022-08-27T01:22:32;11.77;;;3.55;;
66751;SDS011;53663;42.676;23.238;2022-08-27T01:25:08;10.27;;;3.55;;
66751;SDS011;53663;42.676;23.238;2022-08-27T01:27:37;9.60;;;3.40;;
66751;SDS011;53663;42.676;23.238;2022-08-27T01:30:04;11.52;;;3.60;;
66751;SDS011;53663;42.676;23.238;2022-08-27T01:32:33;10.02;;;3.55;;
66751;SDS011;53663;42.676;23.238;2022-08-27T01:35:00;15.73;;;3.40;;
66751;SDS011;53663;42.676;23.238;2022-08-27T01:37:28;8.18;;;3.35;;
66751;SDS011;53663;42.676;23.238;2022-08-27T01:39:54;6.97;;;3.20;;
66751;SDS011;53663;42.676;23.238;2022-08-27T01:42:23;15.57;;;4.13;;
66751;SDS011;53663;42.676;23.238;2022-08-27T01:44:57;10.75;;;3.97;;
66751;SDS011;53663;42.676;23.238;2022-08-27T01:47:26;18.23;;;3.30;;
66751;SDS011;53663;42.676;23.238;2022-08-27T01:49:52;9.18;;;3.25;;
66751;SDS011;53663;42.676;23.238;2022-08-27T01:52:18;6.43;;;3.22;;
66751;SDS011;53663;42.676;23.238;2022-08-27T01:54:47;10.45;;;4.00;;
66751;SDS011;53663;42.676;23.238;2022-08-27T01:57:13;13.85;;;4.20;;
66751;SDS011;53663;42.676;23.238;2022-08-27T01:59:39;8.25;;;3.40;;
66751;SDS011;53663;42.676;23.238;2022-08-27T02:02:05;15.30;;;3.97;;
66751;SDS011;53663;42.676;23.238;2022-08-27T02:04:32;10.15;;;3.58;;
66751;SDS011;53663;42.676;23.238;2022-08-27T02:06:58;16.85;;;5.05;;
66751;SDS011;53663;42.676;23.238;2022-08-27T02:09:24;12.25;;;4.20;;
66751;SDS011;53663;42.676;23.238;2022-08-27T02:11:51;21.10;;;4.65;;
66751;SDS011;53663;42.676;23.238;2022-08-27T02:14:18;15.35;;;3.90;;
66751;SDS011;53663;42.676;23.238;2022-08-27T02:16:44;14.40;;;4.35;;
66751;SDS011;53663;42.676;23.238;2022-08-27T02:19:10;12.55;;;4.10;;
66751;SDS011;53663;42.676;23.238;2022-08-27T02:21:36;10.30;;;4.30;;
66751;SDS011;53663;42.676;23.238;2022-08-27T02:24:02;17.15;;;4.38;;
66751;SDS011;53663;42.676;23.238;2022-08-27T02:26:28;11.93;;;4.43;;
66751;SDS011;53663;42.676;23.238;2022-08-27T02:28:54;13.18;;;4.28;;
66751;SDS011;53663;42.676;23.238;2022-08-27T02:31:19;9.30;;;3.70;;
66751;SDS011;53663;42.676;23.238;2022-08-27T02:33:46;9.88;;;4.18;;
66751;SDS011;53663;42.676;23.238;2022-08-27T02:36:13;13.77;;;4.28;;
66751;SDS011;53663;42.676;23.238;2022-08-27T02:38:39;12.40;;;4.07;;
66751;SDS011;53663;42.676;23.238;2022-08-27T02:41:05;15.38;;;4.72;;
66751;SDS011;53663;42.676;23.238;2022-08-27T02:43:30;17.00;;;4.50;;
66751;SDS011;53663;42.676;23.238;2022-08-27T02:45:56;18.38;;;4.60;;
66751;SDS011;53663;42.676;23.238;2022-08-27T02:48:22;11.30;;;4.30;;
66751;SDS011;53663;42.676;23.238;2022-08-27T02:50:49;13.00;;;4.30;;
66751;SDS011;53663;42.676;23.238;2022-08-27T02:53:15;15.25;;;4.18;;
66751;SDS011;53663;42.676;23.238;2022-08-27T02:55:40;16.70;;;4.55;;
66751;SDS011;53663;42.676;23.238;2022-08-27T02:58:06;12.80;;;3.97;;
66751;SDS011;53663;42.676;23.238;2022-08-27T03:00:31;9.25;;;4.10;;
66751;SDS011;53663;42.676;23.238;2022-08-27T03:02:57;19.42;;;5.00;;
66751;SDS011;53663;42.676;23.238;2022-08-27T03:05:23;11.43;;;4.47;;
66751;SDS011;53663;42.676;23.238;2022-08-27T03:07:48;10.02;;;4.60;;
66751;SDS011;53663;42.676;23.238;2022-08-27T03:10:15;16.30;;;4.65;;
66751;SDS011;53663;42.676;23.238;2022-08-27T03:12:42;14.35;;;4.50;;
66751;SDS011;53663;42.676;23.238;2022-08-27T03:15:09;13.90;;;5.10;;
66751;SDS011;53663;42.676;23.238;2022-08-27T03:17:36;12.05;;;4.20;;
66751;SDS011;53663;42.676;23.238;2022-08-27T03:20:20;16.02;;;5.10;;
66751;SDS011;53663;42.676;23.238;2022-08-27T03:22:47;12.50;;;4.57;;
66751;SDS011;53663;42.676;23.238;2022-08-27T03:25:13;16.40;;;4.50;;
66751;SDS011;53663;42.676;23.238;2022-08-27T03:27:39;19.40;;;5.45;;
66751;SDS011;53663;42.676;23.238;2022-08-27T03:30:05;9.20;;;5.25;;
66751;SDS011;53663;42.676;23.238;2022-08-27T03:32:34;10.50;;;4.70;;
66751;SDS011;53663;42.676;23.238;2022-08-27T03:35:00;12.80;;;4.57;;
66751;SDS011;53663;42.676;23.238;2022-08-27T03:37:25;12.50;;;4.18;;
66751;SDS011;53663;42.676;23.238;2022-08-27T03:39:51;18.95;;;4.68;;
66751;SDS011;53663;42.676;23.238;2022-08-27T03:42:16;13.35;;;4.85;;
66751;SDS011;53663;42.676;23.238;2022-08-27T03:44:42;13.60;;;4.07;;
66751;SDS011;53663;42.676;23.238;2022-08-27T03:47:07;15.38;;;4.20;;
66751;SDS011;53663;42.676;23.238;2022-08-27T03:49:33;11.48;;;3.97;;
66751;SDS011;53663;42.676;23.238;2022-08-27T03:51:58;9.63;;;4.28;;
66751;SDS011;53663;42.676;23.238;2022-08-27T03:54:24;12.18;;;4.60;;
66751;SDS011;53663;42.676;23.238;2022-08-27T03:56:50;22.48;;;4.63;;
66751;SDS011;53663;42.676;23.238;2022-08-27T03:59:16;20.73;;;4.78;;
66751;SDS011;53663;42.676;23.238;2022-08-27T04:01:42;14.52;;;4.32;;
66751;SDS011;53663;42.676;23.238;2022-08-27T04:04:08;8.05;;;3.88;;
66751;SDS011;53663;42.676;23.238;2022-08-27T04:06:34;13.10;;;4.10;;
66751;SDS011;53663;42.676;23.238;2022-08-27T04:08:59;10.90;;;4.10;;
66751;SDS011;53663;42.676;23.238;2022-08-27T04:11:25;18.95;;;4.45;;
66751;SDS011;53663;42.676;23.238;2022-08-27T04:13:52;12.68;;;4.05;;
66751;SDS011;53663;42.676;23.238;2022-08-27T04:16:18;12.88;;;4.10;;
66751;SDS011;53663;42.676;23.238;2022-08-27T04:18:44;19.13;;;4.63;;
66751;SDS011;53663;42.676;23.238;2022-08-27T04:21:10;20.70;;;4.20;;
66751;SDS011;53663;42.676;23.238;2022-08-27T04:23:37;15.52;;;4.03;;
66751;SDS011;53663;42.676;23.238;2022-08-27T04:26:05;15.77;;;4.43;;
66751;SDS011;53663;42.676;23.238;2022-08-27T04:28:32;18.63;;;5.10;;
66751;SDS011;53663;42.676;23.238;2022-08-27T04:30:57;11.90;;;4.35;;
66751;SDS011;53663;42.676;23.238;2022-08-27T04:33:23;15.60;;;5.03;;
66751;SDS011;53663;42.676;23.238;2022-08-27T04:35:58;17.08;;;4.20;;
66751;SDS011;53663;42.676;23.238;2022-08-27T04:38:25;11.85;;;4.22;;
66751;SDS011;53663;42.676;23.238;2022-08-27T04:40:51;21.75;;;4.55;;
66751;SDS011;53663;42.676;23.238;2022-08-27T04:43:35;14.32;;;4.20;;
66751;SDS011;53663;42.676;23.238;2022-08-27T04:46:01;14.80;;;4.65;;
66751;SDS011;53663;42.676;23.238;2022-08-27T04:48:26;17.60;;;4.97;;
66751;SDS011;53663;42.676;23.238;2022-08-27T04:50:52;12.30;;;4.40;;
66751;SDS011;53663;42.676;23.238;2022-08-27T04:53:17;13.55;;;4.30;;
66751;SDS011;53663;42.676;23.238;2022-08-27T04:55:44;18.75;;;5.05;;
66751;SDS011;53663;42.676;23.238;2022-08-27T04:58:14;15.25;;;4.90;;
66751;SDS011;53663;42.676;23.238;2022-08-27T05:00:44;22.45;;;4.78;;
66751;SDS011;53663;42.676;23.238;2022-08-27T05:03:12;16.00;;;4.88;;
66751;SDS011;53663;42.676;23.238;2022-08-27T05:05:40;10.93;;;4.63;;
66751;SDS011;53663;42.676;23.238;2022-08-27T05:08:06;11.93;;;4.72;;
66751;SDS011;53663;42.676;23.238;2022-08-27T05:10:45;20.70;;;5.07;;
66751;SDS011;53663;42.676;23.238;2022-08-27T05:13:14;21.40;;;5.85;;
66751;SDS011;53663;42.676;23.238;2022-08-27T05:15:42;14.07;;;5.22;;
66751;SDS011;53663;42.676;23.238;2022-08-27T05:18:08;19.73;;;4.80;;
66751;SDS011;53663;42.676;23.238;2022-08-27T05:20:40;15.50;;;5.00;;
66751;SDS011;53663;42.676;23.238;2022-08-27T05:23:11;12.60;;;5.93;;
66751;SDS011;53663;42.676;23.238;2022-08-27T05:25:40;20.63;;;5.10;;
66751;SDS011;53663;42.676;23.238;2022-08-27T05:28:07;15.68;;;5.75;;
66751;SDS011;53663;42.676;23.238;2022-08-27T05:30:37;17.02;;;5.40;;
66751;SDS011;53663;42.676;23.238;2022-08-27T05:33:04;23.30;;;5.28;;
66751;SDS011;53663;42.676;23.238;2022-08-27T05:35:32;15.95;;;4.85;;
66751;SDS011;53663;42.676;23.238;2022-08-27T05:38:03;17.35;;;5.60;;
66751;SDS011;53663;42.676;23.238;2022-08-27T05:40:29;14.85;;;4.97;;
66751;SDS011;53663;42.676;23.238;2022-08-27T05:42:54;20.90;;;4.97;;
66751;SDS011;53663;42.676;23.238;2022-08-27T05:45:20;17.42;;;5.47;;
66751;SDS011;53663;42.676;23.238;2022-08-27T05:47:46;15.68;;;5.00;;
66751;SDS011;53663;42.676;23.238;2022-08-27T05:50:11;18.08;;;5.60;;
66751;SDS011;53663;42.676;23.238;2022-08-27T05:52:37;16.38;;;5.45;;
66751;SDS011;53663;42.676;23.238;2022-08-27T05:55:02;16.45;;;5.35;;
66751;SDS011;53663;42.676;23.238;2022-08-27T05:57:28;24.40;;;6.05;;
66751;SDS011;53663;42.676;23.238;2022-08-27T05:59:54;19.80;;;5.68;;
66751;SDS011;53663;42.676;23.238;2022-08-27T06:02:37;12.93;;;5.90;;
66751;SDS011;53663;42.676;23.238;2022-08-27T06:05:03;15.35;;;5.40;;
66751;SDS011;53663;42.676;23.238;2022-08-27T06:07:29;21.67;;;5.80;;
66751;SDS011;53663;42.676;23.238;2022-08-27T06:09:56;16.58;;;5.22;;
66751;SDS011;53663;42.676;23.238;2022-08-27T06:12:23;28.67;;;6.32;;
66751;SDS011;53663;42.676;23.238;2022-08-27T06:14:49;17.92;;;5.80;;
66751;SDS011;53663;42.676;23.238;2022-08-27T06:17:15;19.55;;;5.80;;
66751;SDS011;53663;42.676;23.238;2022-08-27T06:19:40;21.83;;;6.32;;
66751;SDS011;53663;42.676;23.238;2022-08-27T06:22:06;24.40;;;5.95;;
66751;SDS011;53663;42.676;23.238;2022-08-27T06:24:33;20.52;;;5.82;;
66751;SDS011;53663;42.676;23.238;2022-08-27T06:27:00;19.35;;;5.65;;
66751;SDS011;53663;42.676;23.238;2022-08-27T06:29:25;14.30;;;5.93;;
66751;SDS011;53663;42.676;23.238;2022-08-27T06:31:51;22.83;;;6.35;;
66751;SDS011;53663;42.676;23.238;2022-08-27T06:34:19;16.95;;;5.82;;
66751;SDS011;53663;42.676;23.238;2022-08-27T06:36:44;18.50;;;6.18;;
66751;SDS011;53663;42.676;23.238;2022-08-27T06:39:10;25.70;;;7.50;;
66751;SDS011;53663;42.676;23.238;2022-08-27T06:41:38;17.50;;;6.40;;
66751;SDS011;53663;42.676;23.238;2022-08-27T06:44:09;20.60;;;6.07;;
66751;SDS011;53663;42.676;23.238;2022-08-27T06:46:36;11.07;;;5.10;;
66751;SDS011;53663;42.676;23.238;2022-08-27T06:49:02;22.65;;;6.25;;
66751;SDS011;53663;42.676;23.238;2022-08-27T06:51:29;24.13;;;6.50;;
66751;SDS011;53663;42.676;23.238;2022-08-27T06:53:56;23.45;;;5.60;;
66751;SDS011;53663;42.676;23.238;2022-08-27T06:56:24;30.15;;;6.47;;
66751;SDS011;53663;42.676;23.238;2022-08-27T06:58:51;21.02;;;6.57;;
66751;SDS011;53663;42.676;23.238;2022-08-27T07:01:22;19.17;;;5.65;;
66751;SDS011;53663;42.676;23.238;2022-08-27T07:03:50;20.90;;;5.90;;
66751;SDS011;53663;42.676;23.238;2022-08-27T07:06:17;22.13;;;5.80;;
66751;SDS011;53663;42.676;23.238;2022-08-27T07:08:43;19.48;;;5.70;;
66751;SDS011;53663;42.676;23.238;2022-08-27T07:11:10;20.30;;;5.70;;
66751;SDS011;53663;42.676;23.238;2022-08-27T07:13:39;18.73;;;6.37;;
66751;SDS011;53663;42.676;23.238;2022-08-27T07:16:09;18.25;;;5.63;;
66751;SDS011;53663;42.676;23.238;2022-08-27T07:18:37;19.00;;;5.57;;
66751;SDS011;53663;42.676;23.238;2022-08-27T07:21:03;17.58;;;5.63;;
66751;SDS011;53663;42.676;23.238;2022-08-27T07:23:30;22.48;;;5.65;;
66751;SDS011;53663;42.676;23.238;2022-08-27T07:25:57;23.40;;;6.50;;
66751;SDS011;53663;42.676;23.238;2022-08-27T07:28:23;22.35;;;5.32;;
66751;SDS011;53663;42.676;23.238;2022-08-27T07:30:49;14.23;;;5.45;;
66751;SDS011;53663;42.676;23.238;2022-08-27T07:33:16;22.50;;;6.63;;
66751;SDS011;53663;42.676;23.238;2022-08-27T07:35:41;19.83;;;6.18;;
66751;SDS011;53663;42.676;23.238;2022-08-27T07:38:08;17.90;;;5.90;;
66751;SDS011;53663;42.676;23.238;2022-08-27T07:40:35;16.35;;;5.32;;
66751;SDS011;53663;42.676;23.238;2022-08-27T07:43:01;20.08;;;5.35;;
66751;SDS011;53663;42.676;23.238;2022-08-27T07:45:47;23.05;;;5.97;;
66751;SDS011;53663;42.676;23.238;2022-08-27T07:48:14;19.35;;;6.50;;
66751;SDS011;53663;42.676;23.238;2022-08-27T07:50:40;24.67;;;5.63;;
66751;SDS011;53663;42.676;23.238;2022-08-27T07:53:07;32.78;;;13.90;;
66751;SDS011;53663;42.676;23.238;2022-08-27T07:55:36;26.70;;;12.40;;
66751;SDS011;53663;42.676;23.238;2022-08-27T07:58:03;18.77;;;5.53;;
66751;SDS011;53663;42.676;23.238;2022-08-27T08:00:29;13.65;;;4.70;;
66751;SDS011;53663;42.676;23.238;2022-08-27T08:02:55;28.20;;;5.47;;
66751;SDS011;53663;42.676;23.238;2022-08-27T08:05:20;22.33;;;5.40;;
66751;SDS011;53663;42.676;23.238;2022-08-27T08:07:46;16.25;;;5.20;;
66751;SDS011;53663;42.676;23.238;2022-08-27T08:10:11;20.05;;;5.05;;
66751;SDS011;53663;42.676;23.238;2022-08-27T08:12:37;14.00;;;5.10;;
66751;SDS011;53663;42.676;23.238;2022-08-27T08:15:06;20.27;;;6.45;;
66751;SDS011;53663;42.676;23.238;2022-08-27T08:17:34;23.65;;;5.05;;
66751;SDS011;53663;42.676;23.238;2022-08-27T08:20:00;22.48;;;4.80;;
66751;SDS011;53663;42.676;23.238;2022-08-27T08:22:27;12.45;;;5.03;;
66751;SDS011;53663;42.676;23.238;2022-08-27T08:24:53;19.88;;;5.45;;
66751;SDS011;53663;42.676;23.238;2022-08-27T08:27:19;16.10;;;5.15;;
66751;SDS011;53663;42.676;23.238;2022-08-27T08:29:45;19.08;;;5.50;;
66751;SDS011;53663;42.676;23.238;2022-08-27T08:32:11;12.13;;;5.28;;
66751;SDS011;53663;42.676;23.238;2022-08-27T08:34:37;18.33;;;5.05;;
66751;SDS011;53663;42.676;23.238;2022-08-27T08:37:04;23.42;;;4.97;;
66751;SDS011;53663;42.676;23.238;2022-08-27T08:39:30;17.08;;;6.45;;
66751;SDS011;53663;42.676;23.238;2022-08-27T08:41:57;16.20;;;4.70;;
66751;SDS011;53663;42.676;23.238;2022-08-27T08:44:35;19.15;;;4.97;;
66751;SDS011;53663;42.676;23.238;2022-08-27T08:47:13;10.50;;;4.43;;
66751;SDS011;53663;42.676;23.238;2022-08-27T09:00:41;21.92;;;3.97;;
66751;SDS011;53663;42.676;23.238;2022-08-27T09:03:08;18.02;;;3.88;;
66751;SDS011;53663;42.676;23.238;2022-08-27T09:05:36;22.55;;;4.28;;
66751;SDS011;53663;42.676;23.238;2022-08-27T09:08:10;14.30;;;4.07;;
66751;SDS011;53663;42.676;23.238;2022-08-27T09:10:47;21.35;;;4.32;;
66751;SDS011;53663;42.676;23.238;2022-08-27T09:13:20;20.80;;;4.55;;
66751;SDS011;53663;42.676;23.238;2022-08-27T09:15:53;18.13;;;4.28;;
66751;SDS011;53663;42.676;23.238;2022-08-27T09:18:21;16.15;;;4.03;;
66751;SDS011;53663;42.676;23.238;2022-08-27T09:20:49;20.17;;;4.72;;
66751;SDS011;53663;42.676;23.238;2022-08-27T09:23:25;9.18;;;3.03;;
66751;SDS011;53663;42.676;23.238;2022-08-27T09:26:01;12.73;;;3.58;;
66751;SDS011;53663;42.676;23.238;2022-08-27T09:28:27;15.93;;;4.00;;
66751;SDS011;53663;42.676;23.238;2022-08-27T09:31:21;14.00;;;2.97;;
66751;SDS011;53663;42.676;23.238;2022-08-27T09:33:47;18.13;;;3.58;;
66751;SDS011;53663;42.676;23.238;2022-08-27T09:36:15;13.77;;;3.55;;
66751;SDS011;53663;42.676;23.238;2022-08-27T09:38:52;18.90;;;3.70;;
66751;SDS011;53663;42.676;23.238;2022-08-27T09:43:56;13.65;;;3.60;;
66751;SDS011;53663;42.676;23.238;2022-08-27T09:46:24;17.48;;;3.25;;
66751;SDS011;53663;42.676;23.238;2022-08-27T09:48:50;19.77;;;3.53;;
66751;SDS011;53663;42.676;23.238;2022-08-27T09:51:19;18.20;;;3.30;;
66751;SDS011;53663;42.676;23.238;2022-08-27T09:53:49;14.68;;;3.80;;
66751;SDS011;53663;42.676;23.238;2022-08-27T10:01:29;17.63;;;3.50;;
66751;SDS011;53663;42.676;23.238;2022-08-27T10:04:07;12.15;;;3.40;;
66751;SDS011;53663;42.676;23.238;2022-08-27T10:06:36;9.73;;;2.93;;
66751;SDS011;53663;42.676;23.238;2022-08-27T10:09:13;21.70;;;3.42;;
66751;SDS011;53663;42.676;23.238;2022-08-27T10:11:47;11.20;;;3.28;;
66751;SDS011;53663;42.676;23.238;2022-08-27T10:14:33;29.35;;;3.90;;
66751;SDS011;53663;42.676;23.238;2022-08-27T10:22:39;13.32;;;4.47;;
66751;SDS011;53663;42.676;23.238;2022-08-27T10:25:22;12.70;;;3.30;;
66751;SDS011;53663;42.676;23.238;2022-08-27T10:44:29;15.85;;;3.95;;
66751;SDS011;53663;42.676;23.238;2022-08-27T10:52:21;15.05;;;3.83;;
66751;SDS011;53663;42.676;23.238;2022-08-27T10:54:59;17.23;;;4.18;;
66751;SDS011;53663;42.676;23.238;2022-08-27T11:03:40;17.83;;;4.35;;
66751;SDS011;53663;42.676;23.238;2022-08-27T11:06:17;18.70;;;4.45;;
66751;SDS011;53663;42.676;23.238;2022-08-27T11:09:00;19.45;;;4.55;;
66751;SDS011;53663;42.676;23.238;2022-08-27T11:11:45;24.50;;;4.13;;
66751;SDS011;53663;42.676;23.238;2022-08-27T11:14:17;17.15;;;4.05;;
66751;SDS011;53663;42.676;23.238;2022-08-27T11:16:54;26.42;;;3.90;;
66751;SDS011;53663;42.676;23.238;2022-08-27T11:19:33;15.05;;;3.80;;
66751;SDS011;53663;42.676;23.238;2022-08-27T11:27:31;12.35;;;3.80;;
66751;SDS011;53663;42.676;23.238;2022-08-27T11:30:04;18.02;;;4.35;;
66751;SDS011;53663;42.676;23.238;2022-08-27T11:35:21;16.08;;;3.90;;
66751;SDS011;53663;42.676;23.238;2022-08-27T11:43:08;24.55;;;3.90;;
66751;SDS011;53663;42.676;23.238;2022-08-27T11:45:37;12.68;;;4.07;;
66751;SDS011;53663;42.676;23.238;2022-08-27T11:53:33;28.67;;;4.82;;
66751;SDS011;53663;42.676;23.238;2022-08-27T11:56:12;13.05;;;3.85;;
66751;SDS011;53663;42.676;23.238;2022-08-27T11:58:40;21.35;;;4.18;;
66751;SDS011;53663;42.676;23.238;2022-08-27T12:01:41;22.30;;;3.90;;
66751;SDS011;53663;42.676;23.238;2022-08-27T12:04:00;14.75;;;3.97;;
66751;SDS011;53663;42.676;23.238;2022-08-27T12:06:40;24.88;;;4.57;;
66751;SDS011;53663;42.676;23.238;2022-08-27T12:09:26;13.18;;;3.85;;
66751;SDS011;53663;42.676;23.238;2022-08-27T12:11:59;14.57;;;3.95;;
66751;SDS011;53663;42.676;23.238;2022-08-27T12:14:46;18.90;;;4.05;;
66751;SDS011;53663;42.676;23.238;2022-08-27T12:25:31;14.13;;;3.95;;
66751;SDS011;53663;42.676;23.238;2022-08-27T12:27:58;20.15;;;6.68;;
66751;SDS011;53663;42.676;23.238;2022-08-27T12:30:33;33.83;;;9.68;;
66751;SDS011;53663;42.676;23.238;2022-08-27T12:33:08;26.98;;;10.02;;
66751;SDS011;53663;42.676;23.238;2022-08-27T12:35:43;14.35;;;4.43;;
66751;SDS011;53663;42.676;23.238;2022-08-27T12:41:09;11.05;;;3.65;;
66751;SDS011;53663;42.676;23.238;2022-08-27T12:43:36;24.42;;;6.93;;
66751;SDS011;53663;42.676;23.238;2022-08-27T12:46:10;17.35;;;3.47;;
66751;SDS011;53663;42.676;23.238;2022-08-27T12:48:46;16.23;;;4.25;;
66751;SDS011;53663;42.676;23.238;2022-08-27T12:59:00;18.20;;;6.97;;
66751;SDS011;53663;42.676;23.238;2022-08-27T13:04:46;20.83;;;3.90;;
66751;SDS011;53663;42.676;23.238;2022-08-27T13:07:23;9.90;;;3.72;;
66751;SDS011;53663;42.676;23.238;2022-08-27T13:09:54;8.85;;;3.55;;
66751;SDS011;53663;42.676;23.238;2022-08-27T13:12:21;11.60;;;3.72;;
66751;SDS011;53663;42.676;23.238;2022-08-27T13:14:48;15.10;;;4.10;;
66751;SDS011;53663;42.676;23.238;2022-08-27T13:17:16;14.55;;;3.80;;
66751;SDS011;53663;42.676;23.238;2022-08-27T13:22:24;16.73;;;3.58;;
66751;SDS011;53663;42.676;23.238;2022-08-27T13:24:55;16.67;;;3.60;;
66751;SDS011;53663;42.676;23.238;2022-08-27T13:27:22;12.55;;;3.72;;
66751;SDS011;53663;42.676;23.238;2022-08-27T13:29:49;11.98;;;3.63;;
66751;SDS011;53663;42.676;23.238;2022-08-27T13:32:16;12.82;;;3.83;;
66751;SDS011;53663;42.676;23.238;2022-08-27T13:34:42;12.70;;;3.40;;
66751;SDS011;53663;42.676;23.238;2022-08-27T13:37:27;17.42;;;3.90;;
66751;SDS011;53663;42.676;23.238;2022-08-27T13:39:58;13.73;;;3.40;;
66751;SDS011;53663;42.676;23.238;2022-08-27T13:42:23;10.50;;;3.40;;
66751;SDS011;53663;42.676;23.238;2022-08-27T13:44:50;14.15;;;3.72;;
66751;SDS011;53663;42.676;23.238;2022-08-27T13:49:50;16.17;;;3.47;;
66751;SDS011;53663;42.676;23.238;2022-08-27T13:52:31;12.75;;;3.42;;
66751;SDS011;53663;42.676;23.238;2022-08-27T13:55:21;16.27;;;3.70;;
66751;SDS011;53663;42.676;23.238;2022-08-27T13:57:48;14.00;;;3.53;;
66751;SDS011;53663;42.676;23.238;2022-08-27T14:02:47;14.23;;;3.97;;
66751;SDS011;53663;42.676;23.238;2022-08-27T14:05:14;13.13;;;3.35;;
66751;SDS011;53663;42.676;23.238;2022-08-27T14:07:56;14.57;;;3.60;;
66751;SDS011;53663;42.676;23.238;2022-08-27T14:13:04;14.68;;;3.50;;
66751;SDS011;53663;42.676;23.238;2022-08-27T14:15:35;9.43;;;3.38;;
66751;SDS011;53663;42.676;23.238;2022-08-27T14:18:07;8.13;;;3.50;;
66751;SDS011;53663;42.676;23.238;2022-08-27T14:20:53;11.07;;;3.60;;
66751;SDS011;53663;42.676;23.238;2022-08-27T14:23:20;9.43;;;3.13;;
66751;SDS011;53663;42.676;23.238;2022-08-27T14:25:46;10.75;;;2.95;;
66751;SDS011;53663;42.676;23.238;2022-08-27T14:28:12;10.68;;;2.75;;
66751;SDS011;53663;42.676;23.238;2022-08-27T14:30:37;11.13;;;3.28;;
66751;SDS011;53663;42.676;23.238;2022-08-27T14:33:04;15.48;;;3.10;;
66751;SDS011;53663;42.676;23.238;2022-08-27T14:35:31;8.65;;;2.95;;
66751;SDS011;53663;42.676;23.238;2022-08-27T14:37:58;14.55;;;3.05;;
66751;SDS011;53663;42.676;23.238;2022-08-27T14:40:38;12.35;;;3.10;;
66751;SDS011;53663;42.676;23.238;2022-08-27T14:43:05;13.00;;;3.50;;
66751;SDS011;53663;42.676;23.238;2022-08-27T14:45:31;8.90;;;2.95;;
66751;SDS011;53663;42.676;23.238;2022-08-27T14:47:57;11.73;;;3.72;;
66751;SDS011;53663;42.676;23.238;2022-08-27T14:50:23;8.80;;;3.25;;
66751;SDS011;53663;42.676;23.238;2022-08-27T14:52:49;13.27;;;3.22;;
66751;SDS011;53663;42.676;23.238;2022-08-27T14:55:14;11.25;;;3.22;;
66751;SDS011;53663;42.676;23.238;2022-08-27T14:57:40;6.40;;;2.75;;
66751;SDS011;53663;42.676;23.238;2022-08-27T15:00:06;8.07;;;2.80;;
66751;SDS011;53663;42.676;23.238;2022-08-27T15:02:34;15.20;;;3.13;;
66751;SDS011;53663;42.676;23.238;2022-08-27T15:05:00;12.75;;;3.00;;
66751;SDS011;53663;42.676;23.238;2022-08-27T15:07:26;11.40;;;3.00;;
66751;SDS011;53663;42.676;23.238;2022-08-27T15:09:51;10.05;;;3.42;;
66751;SDS011;53663;42.676;23.238;2022-08-27T15:12:19;11.15;;;2.85;;
66751;SDS011;53663;42.676;23.238;2022-08-27T15:14:44;12.07;;;3.28;;
66751;SDS011;53663;42.676;23.238;2022-08-27T15:17:10;13.85;;;3.13;;
66751;SDS011;53663;42.676;23.238;2022-08-27T15:19:36;9.75;;;3.03;;
66751;SDS011;53663;42.676;23.238;2022-08-27T15:22:15;9.90;;;3.42;;
66751;SDS011;53663;42.676;23.238;2022-08-27T15:24:45;13.57;;;3.20;;
66751;SDS011;53663;42.676;23.238;2022-08-27T15:27:13;9.82;;;3.00;;
66751;SDS011;53663;42.676;23.238;2022-08-27T15:29:39;10.82;;;3.10;;
66751;SDS011;53663;42.676;23.238;2022-08-27T15:32:04;17.13;;;3.13;;
66751;SDS011;53663;42.676;23.238;2022-08-27T15:34:31;13.80;;;3.30;;
66751;SDS011;53663;42.676;23.238;2022-08-27T15:36:57;8.65;;;3.28;;
66751;SDS011;53663;42.676;23.238;2022-08-27T15:39:22;15.48;;;3.83;;
66751;SDS011;53663;42.676;23.238;2022-08-27T15:41:48;11.50;;;3.63;;
66751;SDS011;53663;42.676;23.238;2022-08-27T15:44:14;17.75;;;3.65;;
66751;SDS011;53663;42.676;23.238;2022-08-27T15:46:40;17.10;;;4.00;;
66751;SDS011;53663;42.676;23.238;2022-08-27T15:49:08;19.27;;;3.97;;
66751;SDS011;53663;42.676;23.238;2022-08-27T15:51:35;18.60;;;3.60;;
66751;SDS011;53663;42.676;23.238;2022-08-27T15:54:02;13.88;;;3.70;;
66751;SDS011;53663;42.676;23.238;2022-08-27T15:56:28;12.68;;;3.88;;
66751;SDS011;53663;42.676;23.238;2022-08-27T15:58:53;7.10;;;3.15;;
66751;SDS011;53663;42.676;23.238;2022-08-27T16:01:31;15.57;;;4.00;;
66751;SDS011;53663;42.676;23.238;2022-08-27T16:03:59;13.95;;;3.70;;
66751;SDS011;53663;42.676;23.238;2022-08-27T16:06:25;19.70;;;4.20;;
66751;SDS011;53663;42.676;23.238;2022-08-27T16:08:51;13.70;;;4.22;;
66751;SDS011;53663;42.676;23.238;2022-08-27T16:11:17;16.33;;;4.00;;
66751;SDS011;53663;42.676;23.238;2022-08-27T16:13:43;17.80;;;4.90;;
66751;SDS011;53663;42.676;23.238;2022-08-27T16:16:09;15.77;;;6.07;;